createdAt,value
2019-01-12T00:02:07.756Z,99.90
2019-01-12T00:04:37.008Z,99.90
2019-01-12T00:07:06.549Z,99.90
2019-01-12T00:09:35.995Z,99.90
2019-01-12T00:12:05.988Z,99.90
2019-01-12T00:14:38.687Z,99.90
2019-01-12T00:17:08.427Z,99.90
2019-01-12T00:19:38.407Z,99.90
2019-01-12T00:22:08.911Z,99.90
2019-01-12T00:24:38.670Z,99.90
2019-01-12T00:27:08.470Z,99.90
2019-01-12T00:29:38.369Z,99.90
2019-01-12T00:32:08.268Z,99.90
2019-01-12T00:34:38.128Z,99.90
2019-01-12T00:37:07.288Z,99.90
2019-01-12T00:39:37.227Z,99.90
2019-01-12T00:42:26.327Z,99.90
2019-01-12T00:44:56.128Z,99.90
2019-01-12T00:47:25.868Z,99.90
2019-01-12T00:49:55.448Z,99.90
2019-01-12T00:52:25.269Z,99.90
2019-01-12T00:55:01.389Z,99.90
2019-01-12T00:57:31.057Z,99.90
2019-01-12T01:00:01.376Z,99.90
2019-01-12T01:02:31.681Z,99.90
2019-01-12T01:05:01.108Z,99.90
2019-01-12T01:07:31.279Z,99.90
2019-01-12T01:10:00.941Z,99.90
2019-01-12T01:12:30.401Z,99.90
2019-01-12T01:15:00.180Z,99.90
2019-01-12T01:17:30.221Z,99.90
2019-01-12T01:19:59.342Z,99.90
2019-01-12T01:22:29.122Z,99.90
2019-01-12T01:24:58.561Z,99.90
2019-01-12T01:27:28.681Z,99.90
2019-01-12T01:29:58.340Z,99.90
2019-01-12T01:32:27.881Z,99.90
2019-01-12T01:34:57.361Z,99.90
2019-01-12T01:37:26.720Z,99.90
2019-01-12T01:39:56.101Z,99.90
2019-01-12T01:42:25.641Z,99.90
2019-01-12T01:44:55.019Z,99.90
2019-01-12T01:47:24.421Z,99.90
2019-01-12T01:49:53.940Z,99.90
2019-01-12T01:52:23.041Z,99.90
2019-01-12T01:54:52.948Z,99.90
2019-01-12T01:57:22.880Z,99.90
2019-01-12T01:59:52.020Z,99.90
2019-01-12T02:02:21.662Z,99.90
2019-01-12T02:04:51.196Z,99.90
2019-01-12T02:07:20.316Z,99.90
2019-01-12T02:09:50.161Z,99.90
2019-01-12T02:12:19.617Z,99.90
2019-01-12T02:14:51.337Z,99.90
2019-01-12T02:17:20.999Z,99.90
2019-01-12T02:19:51.536Z,99.90
2019-01-12T02:22:21.477Z,99.90
2019-01-12T02:24:59.961Z,99.90
2019-01-12T02:27:26.156Z,99.90
2019-01-12T02:29:55.459Z,99.90
2019-01-12T02:32:24.898Z,99.90
2019-01-12T02:34:54.237Z,99.90
2019-01-12T02:37:24.456Z,99.90
2019-01-12T02:39:54.238Z,99.90
2019-01-12T02:42:23.776Z,99.90
2019-01-12T02:44:53.037Z,99.90
2019-01-12T02:47:22.156Z,99.90
2019-01-12T02:49:51.517Z,99.90
2019-01-12T02:52:21.817Z,99.90
2019-01-12T02:54:55.056Z,99.90
2019-01-12T02:57:24.356Z,99.90
2019-01-12T02:59:53.916Z,99.90
2019-01-12T03:02:23.761Z,99.90
2019-01-12T03:04:53.121Z,99.90
2019-01-12T03:07:22.881Z,99.90
2019-01-12T03:09:52.599Z,99.90
2019-01-12T03:12:22.000Z,99.90
2019-01-12T03:14:51.561Z,99.90
2019-01-12T03:17:20.879Z,99.90
2019-01-12T03:19:50.143Z,99.90
2019-01-12T03:22:19.358Z,99.90
2019-01-12T03:24:49.138Z,99.90
2019-01-12T03:27:24.637Z,99.90
2019-01-12T03:29:53.857Z,99.90
2019-01-12T03:32:23.237Z,99.90
2019-01-12T03:34:52.638Z,99.90
2019-01-12T03:37:21.739Z,99.90
2019-01-12T03:39:51.378Z,99.90
2019-01-12T03:42:22.519Z,99.90
2019-01-12T03:44:51.897Z,99.90
2019-01-12T03:47:23.976Z,99.90
2019-01-12T03:49:53.817Z,99.90
2019-01-12T03:52:24.316Z,99.90
2019-01-12T03:54:53.657Z,99.90
2019-01-12T03:57:24.478Z,99.90
2019-01-12T03:59:54.117Z,99.90
2019-01-12T04:02:23.743Z,99.90
2019-01-12T04:04:54.102Z,99.90
2019-01-12T04:07:23.503Z,99.90
2019-01-12T04:09:52.943Z,99.90
2019-01-12T04:12:22.505Z,99.90
2019-01-12T04:14:51.823Z,99.90
2019-01-12T04:17:21.623Z,99.90
2019-01-12T04:19:53.285Z,99.90
2019-01-12T04:22:22.716Z,99.90
2019-01-12T04:24:52.696Z,99.90
2019-01-12T04:27:22.477Z,99.90
2019-01-12T04:29:52.358Z,99.90
2019-01-12T04:32:22.237Z,99.90
2019-01-12T04:34:53.155Z,99.90
2019-01-12T04:37:22.826Z,99.90
2019-01-12T04:39:52.316Z,99.90
2019-01-12T04:42:21.696Z,99.90
2019-01-12T04:44:51.336Z,99.90
2019-01-12T04:47:22.197Z,99.90
2019-01-12T04:49:51.356Z,99.90
2019-01-12T04:52:20.758Z,99.90
2019-01-12T04:54:51.177Z,99.90
2019-01-12T04:57:20.775Z,99.90
2019-01-12T04:59:49.856Z,99.90
2019-01-12T05:02:19.308Z,99.90
2019-01-12T05:04:48.646Z,99.90
2019-01-12T05:07:18.425Z,99.90
2019-01-12T05:09:47.825Z,99.90
2019-01-12T05:12:17.573Z,99.90
2019-01-12T05:14:47.765Z,99.90
2019-01-12T05:17:17.126Z,99.90
2019-01-12T05:19:46.648Z,99.90
2019-01-12T05:22:16.086Z,99.90
2019-01-12T05:24:45.645Z,99.90
2019-01-12T05:27:14.896Z,99.90
2019-01-12T05:29:44.706Z,99.90
2019-01-12T05:32:16.047Z,99.90
2019-01-12T05:34:45.246Z,99.90
2019-01-12T05:37:14.427Z,99.90
2019-01-12T05:39:47.885Z,99.90
2019-01-12T05:42:20.401Z,99.90
2019-01-12T05:44:49.898Z,99.90
2019-01-12T05:47:19.518Z,99.90
2019-01-12T05:49:49.159Z,99.90
2019-01-12T05:52:21.778Z,99.90
2019-01-12T05:54:51.181Z,99.90
2019-01-12T05:57:20.169Z,99.90
2019-01-12T05:59:50.100Z,99.90
2019-01-12T06:02:19.355Z,99.90
2019-01-12T06:04:48.876Z,99.90
2019-01-12T06:07:18.195Z,99.90
2019-01-12T06:09:49.704Z,99.90
2019-01-12T06:12:19.784Z,99.90
2019-01-12T06:14:51.718Z,99.90
2019-01-12T06:17:20.939Z,99.90
2019-01-12T06:19:51.096Z,99.90
2019-01-12T06:22:23.316Z,99.90
2019-01-12T06:24:52.876Z,99.90
2019-01-12T06:27:23.837Z,99.90
2019-01-12T06:30:07.999Z,99.90
2019-01-12T06:32:37.816Z,99.90
2019-01-12T06:35:09.077Z,99.90
2019-01-12T06:37:38.636Z,99.90
2019-01-12T06:40:10.937Z,99.90
2019-01-12T06:42:40.459Z,99.90
2019-01-12T06:45:17.917Z,99.90
2019-01-12T06:47:47.201Z,99.90
2019-01-12T06:50:18.875Z,99.90
2019-01-12T06:52:48.039Z,99.90
2019-01-12T06:55:17.396Z,99.90
2019-01-12T06:57:48.615Z,99.90
2019-01-12T07:00:19.568Z,99.90
2019-01-12T07:02:50.573Z,99.90
2019-01-12T07:05:20.308Z,99.90
2019-01-12T07:07:52.537Z,99.90
2019-01-12T07:10:22.719Z,99.90
2019-01-12T07:12:52.018Z,99.90
2019-01-12T07:15:21.244Z,99.90
2019-01-12T07:17:53.927Z,99.90
2019-01-12T07:20:23.436Z,99.90
2019-01-12T07:22:52.676Z,99.90
2019-01-12T07:25:21.784Z,99.90
2019-01-12T07:27:51.016Z,99.90
2019-01-12T07:30:22.095Z,99.90
2019-01-12T07:32:56.358Z,99.90
2019-01-12T07:35:28.555Z,99.90
2019-01-12T07:37:57.757Z,99.90
2019-01-12T07:40:27.257Z,99.90
2019-01-12T07:42:56.397Z,99.90
2019-01-12T07:45:26.395Z,99.90
2019-01-12T07:47:56.115Z,99.90
2019-01-12T07:50:25.898Z,99.90
2019-01-12T07:52:58.675Z,99.90
2019-01-12T07:55:28.297Z,99.90
2019-01-12T07:57:58.398Z,99.90
2019-01-12T08:00:30.726Z,99.90
2019-01-12T08:03:00.725Z,99.90
2019-01-12T08:05:54.259Z,99.90
2019-01-12T08:08:23.340Z,99.90
2019-01-12T08:10:56.019Z,99.90
2019-01-12T08:13:25.416Z,99.90
2019-01-12T08:15:55.287Z,99.90
2019-01-12T08:18:24.269Z,99.90
2019-01-12T08:20:55.858Z,99.90
2019-01-12T08:23:24.852Z,99.90
2019-01-12T08:25:53.811Z,99.90
2019-01-12T08:28:23.386Z,99.90
2019-01-12T08:30:52.963Z,99.90
2019-01-12T08:33:25.445Z,99.90
2019-01-12T08:35:55.123Z,99.90
2019-01-12T08:38:24.436Z,99.90
2019-01-12T08:40:53.596Z,99.90
2019-01-12T08:43:23.037Z,99.90
2019-01-12T08:45:51.964Z,99.90
2019-01-12T08:48:21.263Z,99.90
2019-01-12T08:50:53.446Z,99.90
2019-01-12T08:53:23.622Z,99.90
2019-01-12T08:55:53.281Z,99.90
2019-01-12T08:58:22.861Z,99.90
2019-01-12T09:00:52.480Z,99.90
2019-01-12T09:03:22.422Z,99.90
2019-01-12T09:05:51.738Z,99.90
2019-01-12T09:08:20.897Z,99.90
2019-01-12T09:10:50.297Z,99.90
2019-01-12T09:13:19.847Z,99.90
2019-01-12T09:15:48.935Z,99.90
2019-01-12T09:18:17.999Z,99.90
2019-01-12T09:20:47.492Z,99.20
2019-01-12T09:23:16.784Z,99.90
2019-01-12T09:25:49.782Z,99.90
2019-01-12T09:28:19.505Z,99.90
2019-01-12T09:30:48.797Z,99.90
2019-01-12T09:33:17.824Z,99.90
2019-01-12T09:35:50.582Z,99.90
2019-01-12T09:38:19.662Z,98.60
2019-01-12T09:40:49.044Z,99.50
2019-01-12T09:43:18.123Z,98.50
2019-01-12T09:45:51.162Z,99.00
2019-01-12T09:48:20.407Z,98.30
2019-01-12T09:50:49.423Z,98.90
2019-01-12T09:53:18.523Z,98.10
2019-01-12T09:55:48.203Z,98.90
2019-01-12T09:58:17.562Z,97.80
2019-01-12T10:00:46.706Z,98.10
2019-01-12T10:03:16.122Z,97.50
2019-01-12T10:05:49.163Z,99.30
2019-01-12T10:08:18.661Z,97.90
2019-01-12T10:10:47.996Z,97.50
2019-01-12T10:13:17.438Z,97.70
2019-01-12T10:15:46.496Z,98.10
2019-01-12T10:18:17.876Z,98.30
2019-01-12T10:20:47.106Z,97.40
2019-01-12T10:23:18.082Z,98.10
2019-01-12T10:25:48.148Z,96.80
2019-01-12T10:28:19.697Z,97.80
2019-01-12T10:30:51.226Z,97.90
2019-01-12T10:33:21.110Z,97.40
2019-01-12T10:35:50.220Z,97.40
2019-01-12T10:38:26.166Z,98.40
2019-01-12T10:40:55.199Z,98.40
2019-01-12T10:43:25.856Z,98.70
2019-01-12T10:45:54.939Z,97.80
2019-01-12T10:48:24.194Z,97.20
2019-01-12T10:50:53.400Z,97.80
2019-01-12T10:53:22.496Z,98.30
2019-01-12T10:55:54.981Z,97.20
2019-01-12T10:58:24.375Z,96.60
2019-01-12T11:00:53.886Z,97.60
2019-01-12T11:03:24.622Z,96.50
2019-01-12T11:05:53.726Z,97.50
2019-01-12T11:08:22.808Z,97.50
2019-01-12T11:10:53.502Z,96.00
2019-01-12T11:13:23.261Z,97.20
2019-01-12T11:15:52.802Z,96.70
2019-01-12T11:18:22.137Z,97.40
2019-01-12T11:20:51.376Z,96.30
2019-01-12T11:23:20.456Z,97.10
2019-01-12T11:25:49.817Z,97.00
2019-01-12T11:28:19.881Z,96.90
2019-01-12T11:30:49.281Z,96.70
2019-01-12T11:33:18.382Z,96.20
2019-01-12T11:38:45.743Z,96.30
2019-01-12T11:41:15.043Z,97.30
2019-01-12T11:43:44.823Z,96.00
2019-01-12T11:46:14.580Z,96.70
2019-01-12T11:48:43.903Z,95.50
2019-01-12T11:51:13.762Z,96.50
2019-01-12T11:53:43.802Z,95.60
2019-01-12T11:56:13.502Z,96.60
2019-01-12T11:58:43.082Z,96.20
2019-01-12T12:01:12.169Z,95.90
2019-01-12T12:03:42.052Z,97.00
2019-01-12T12:06:11.365Z,96.70
2019-01-12T12:08:41.144Z,96.60
2019-01-12T12:11:10.725Z,97.20
2019-01-12T12:13:40.155Z,97.40
2019-01-12T12:16:09.256Z,96.90
2019-01-12T12:18:38.932Z,97.00
2019-01-12T12:21:07.957Z,96.80
2019-01-12T12:23:36.996Z,97.10
2019-01-12T12:26:06.096Z,97.30
2019-01-12T12:28:35.631Z,97.40
2019-01-12T12:31:07.156Z,97.10
2019-01-12T12:33:36.336Z,97.00
2019-01-12T12:36:10.890Z,96.90
2019-01-12T12:38:40.123Z,97.20
2019-01-12T12:41:09.284Z,96.80
2019-01-12T12:43:38.584Z,97.60
2019-01-12T12:46:07.982Z,97.40
2019-01-12T12:48:37.346Z,97.70
2019-01-12T12:51:08.999Z,97.60
2019-01-12T12:53:38.831Z,97.80
2019-01-12T12:56:08.298Z,97.60
2019-01-12T12:58:38.118Z,97.30
2019-01-12T13:01:09.280Z,97.30
2019-01-12T13:03:41.361Z,98.40
2019-01-12T13:06:11.140Z,99.10
2019-01-12T13:08:48.275Z,98.40
2019-01-12T13:11:12.318Z,97.90
2019-01-12T13:13:42.758Z,98.20
2019-01-12T13:16:11.910Z,97.70
2019-01-12T13:18:41.800Z,97.30
2019-01-12T13:21:11.299Z,97.30
2019-01-12T13:23:41.519Z,98.00
2019-01-12T13:26:11.379Z,98.30
2019-01-12T13:28:41.018Z,98.10
2019-01-12T13:31:12.496Z,99.00
2019-01-12T13:33:41.736Z,98.70
2019-01-12T13:36:13.116Z,98.70
2019-01-12T13:38:43.095Z,98.10
2019-01-12T13:41:15.896Z,99.20
2019-01-12T13:43:52.095Z,98.70
2019-01-12T13:46:22.796Z,98.90
2019-01-12T13:49:01.616Z,98.90
2019-01-12T13:51:31.519Z,99.30
2019-01-12T13:54:01.116Z,99.00
2019-01-12T13:56:30.437Z,99.10
2019-01-12T13:58:59.557Z,99.40
2019-01-12T14:01:29.302Z,99.10
2019-01-12T14:04:00.021Z,99.00
2019-01-12T14:06:30.079Z,98.50
2019-01-12T14:08:59.600Z,98.30
2019-01-12T14:11:33.778Z,98.80
2019-01-12T14:14:04.117Z,98.70
2019-01-12T14:16:33.598Z,99.20
2019-01-12T14:19:03.596Z,99.00
2019-01-12T14:21:34.319Z,98.30
2019-01-12T14:24:06.175Z,98.50
2019-01-12T14:26:36.476Z,98.80
2019-01-12T14:29:09.480Z,98.90
2019-01-12T14:31:39.180Z,99.10
2019-01-12T14:34:08.483Z,99.50
2019-01-12T14:36:37.799Z,99.90
2019-01-12T14:39:10.063Z,99.90
2019-01-12T14:41:39.141Z,99.90
2019-01-12T14:44:09.226Z,99.90
2019-01-12T14:46:38.509Z,99.90
2019-01-12T14:49:08.227Z,99.90
2019-01-12T14:51:37.370Z,99.90
2019-01-12T14:54:06.606Z,99.90
2019-01-12T14:56:36.068Z,99.90
2019-01-12T14:59:05.679Z,99.90
2019-01-12T15:01:34.846Z,99.90
2019-01-12T15:04:05.649Z,99.90
2019-01-12T15:06:35.231Z,99.90
2019-01-12T15:09:07.407Z,99.90
2019-01-12T15:11:37.159Z,99.90
2019-01-12T15:14:06.941Z,99.90
2019-01-12T15:16:36.762Z,99.90
2019-01-12T15:19:06.901Z,99.90
2019-01-12T15:21:37.641Z,99.90
2019-01-12T15:24:06.781Z,99.90
2019-01-12T15:26:35.969Z,99.90
2019-01-12T15:29:05.160Z,99.90
2019-01-12T15:31:34.722Z,99.90
2019-01-12T15:34:05.359Z,99.90
2019-01-12T15:36:34.959Z,99.90
2019-01-12T15:39:05.516Z,99.90
2019-01-12T15:41:36.070Z,99.90
2019-01-12T15:44:06.757Z,99.90
2019-01-12T15:46:36.776Z,99.90
2019-01-12T15:49:09.139Z,99.90
2019-01-12T15:51:38.365Z,99.90
2019-01-12T15:54:08.023Z,99.90
2019-01-12T15:56:37.217Z,99.90
2019-01-12T15:59:06.734Z,99.90
2019-01-12T16:01:35.881Z,99.90
2019-01-12T16:04:05.241Z,99.90
2019-01-12T16:06:37.762Z,99.90
2019-01-12T16:09:09.676Z,99.90
2019-01-12T16:11:39.137Z,99.90
2019-01-12T16:14:08.237Z,99.90
2019-01-12T16:16:40.782Z,99.90
2019-01-12T16:19:09.862Z,99.90
2019-01-12T16:21:39.275Z,99.90
2019-01-12T16:24:10.349Z,99.90
2019-01-12T16:26:40.045Z,99.90
2019-01-12T16:29:09.104Z,99.90
2019-01-12T16:31:38.759Z,99.90
2019-01-12T16:34:08.001Z,99.90
2019-01-12T16:36:37.880Z,99.90
2019-01-12T16:39:08.976Z,99.90
2019-01-12T16:41:38.039Z,99.90
2019-01-12T16:44:08.419Z,99.90
2019-01-12T16:46:37.779Z,99.90
2019-01-12T16:49:07.124Z,99.90
2019-01-12T16:51:36.489Z,99.90
2019-01-12T16:54:06.089Z,99.90
2019-01-12T16:56:35.864Z,99.90
2019-01-12T16:59:05.068Z,99.90
2019-01-12T17:01:34.619Z,99.90
2019-01-12T17:04:04.382Z,99.90
2019-01-12T17:06:33.540Z,99.90
2019-01-12T17:09:03.280Z,99.90
2019-01-12T17:11:35.098Z,99.90
2019-01-12T17:14:04.682Z,99.90
2019-01-12T17:16:33.812Z,99.90
2019-01-12T17:19:02.983Z,99.90
2019-01-12T17:21:32.333Z,99.90
2019-01-12T17:24:01.767Z,99.90
2019-01-12T17:26:31.067Z,99.90
2019-01-12T17:29:00.906Z,99.90
2019-01-12T17:31:30.642Z,99.90
2019-01-12T17:33:59.667Z,99.90
2019-01-12T17:36:28.741Z,99.90
2019-01-12T17:38:57.920Z,99.90
2019-01-12T17:41:27.198Z,99.90
2019-01-12T17:43:57.682Z,99.90
2019-01-12T17:46:28.043Z,99.90
2019-01-12T17:48:57.319Z,99.90
2019-01-12T17:51:26.499Z,99.90
2019-01-12T17:53:57.039Z,99.90
2019-01-12T17:56:25.981Z,99.90
2019-01-12T17:58:55.361Z,99.90
2019-01-12T18:01:24.893Z,99.90
2019-01-12T18:03:54.207Z,99.90
2019-01-12T18:06:26.280Z,99.90
2019-01-12T18:08:56.064Z,99.90
2019-01-12T18:11:25.531Z,99.90
2019-01-12T18:13:56.655Z,99.90
2019-01-12T18:16:30.393Z,99.90
2019-01-12T18:18:59.847Z,99.90
2019-01-12T18:21:30.146Z,99.90
2019-01-12T18:23:59.424Z,99.90
2019-01-12T18:26:29.697Z,99.90
2019-01-12T18:28:59.923Z,99.90
2019-01-12T18:31:30.765Z,99.90
2019-01-12T18:34:00.528Z,99.90
2019-01-12T18:36:29.625Z,99.90
2019-01-12T18:38:59.139Z,99.90
2019-01-12T18:41:28.960Z,99.90
2019-01-12T18:44:01.942Z,99.90
2019-01-12T18:46:30.996Z,99.90
2019-01-12T18:49:00.458Z,99.90
2019-01-12T18:51:32.462Z,99.90
2019-01-12T18:54:01.917Z,99.90
2019-01-12T18:56:31.104Z,99.90
2019-01-12T18:59:00.515Z,99.90
2019-01-12T19:01:30.262Z,99.90
2019-01-12T19:04:00.209Z,99.90
2019-01-12T19:06:29.658Z,99.90
2019-01-12T19:08:59.461Z,99.90
2019-01-12T19:11:30.344Z,99.90
2019-01-12T19:13:59.641Z,99.90
2019-01-12T19:16:29.344Z,99.90
2019-01-12T19:19:01.883Z,99.90
2019-01-12T19:21:31.529Z,99.90
2019-01-12T19:24:00.641Z,99.90
2019-01-12T19:26:30.361Z,99.90
2019-01-12T19:29:06.148Z,99.90
2019-01-12T19:31:31.126Z,99.90
2019-01-12T19:34:00.299Z,99.90
2019-01-12T19:36:30.223Z,99.90
2019-01-12T19:39:01.281Z,99.90
2019-01-12T19:41:30.498Z,99.90
2019-01-12T19:43:59.492Z,99.90
2019-01-12T19:46:28.459Z,99.90
2019-01-12T19:49:01.500Z,99.90
2019-01-12T19:51:31.243Z,99.90
2019-01-12T19:54:00.681Z,99.90
2019-01-12T19:56:30.049Z,99.90
2019-01-12T19:58:59.392Z,99.90
2019-01-12T20:01:28.786Z,99.90
2019-01-12T20:04:01.279Z,99.90
2019-01-12T20:06:30.424Z,99.90
2019-01-12T20:09:03.125Z,99.90
2019-01-12T20:11:32.855Z,99.90
2019-01-12T20:14:05.364Z,99.90
2019-01-12T20:16:34.766Z,99.90
2019-01-12T20:19:05.139Z,99.90
2019-01-12T20:21:34.728Z,99.90
2019-01-12T20:24:04.055Z,99.90
2019-01-12T20:26:33.623Z,99.90
2019-01-12T20:29:02.786Z,99.90
2019-01-12T20:31:52.962Z,99.90
2019-01-12T20:34:24.956Z,99.90
2019-01-12T20:37:28.986Z,99.90
2019-01-12T20:40:10.609Z,99.90
2019-01-12T20:43:06.969Z,99.90
2019-01-12T20:45:45.476Z,99.90
2019-01-12T20:48:26.236Z,99.90
2019-01-12T20:51:16.505Z,99.90
2019-01-12T20:54:06.439Z,99.90
2019-01-12T20:56:47.799Z,99.90
2019-01-12T20:59:38.319Z,99.90
2019-01-12T21:02:22.444Z,99.90
2019-01-12T21:04:54.724Z,99.90
2019-01-12T21:07:35.435Z,99.90
2019-01-12T21:10:10.698Z,99.90
2019-01-12T21:13:05.987Z,99.90
2019-01-12T21:15:55.980Z,99.90
2019-01-12T21:18:25.364Z,99.90
2019-01-12T21:20:54.660Z,99.90
2019-01-12T21:23:23.896Z,99.90
2019-01-12T21:25:53.303Z,99.90
2019-01-12T21:28:22.312Z,99.90
2019-01-12T21:30:51.966Z,99.90
2019-01-12T21:33:22.605Z,99.90
2019-01-12T21:35:52.381Z,99.90
2019-01-12T21:38:22.021Z,99.90
2019-01-12T21:40:52.313Z,99.90
2019-01-12T21:43:21.306Z,99.90
2019-01-12T21:45:53.305Z,99.90
2019-01-12T21:48:23.246Z,99.90
2019-01-12T21:50:52.446Z,99.90
2019-01-12T21:53:22.004Z,99.90
2019-01-12T21:55:51.485Z,99.90
2019-01-12T21:58:20.925Z,99.90
2019-01-12T22:00:50.181Z,99.90
2019-01-12T22:03:20.083Z,99.90
2019-01-12T22:05:49.501Z,99.90
2019-01-12T22:08:19.201Z,99.90
2019-01-12T22:10:48.361Z,99.90
2019-01-12T22:13:17.442Z,99.90
2019-01-12T22:15:46.660Z,99.90
2019-01-12T22:18:16.026Z,99.90
2019-01-12T22:20:46.660Z,99.90
2019-01-12T22:23:18.010Z,99.90
2019-01-12T22:25:50.214Z,99.90
2019-01-12T22:28:20.329Z,99.90
2019-01-12T22:30:50.323Z,99.90
2019-01-12T22:33:23.394Z,99.90
2019-01-12T22:35:54.655Z,99.90
2019-01-12T22:38:25.074Z,99.90
2019-01-12T22:40:56.832Z,99.90
2019-01-12T22:43:26.638Z,99.90
2019-01-12T22:45:56.796Z,99.90
2019-01-12T22:48:26.956Z,99.90
2019-01-12T22:50:56.638Z,99.90
2019-01-12T22:53:26.977Z,99.90
2019-01-12T22:55:56.797Z,99.90
2019-01-12T22:58:25.926Z,99.90
2019-01-12T23:01:05.800Z,99.90
2019-01-12T23:03:35.304Z,99.90
2019-01-12T23:06:04.580Z,99.90
2019-01-12T23:08:33.855Z,99.90
2019-01-12T23:11:03.715Z,99.90
2019-01-12T23:13:36.537Z,99.90
2019-01-12T23:16:06.675Z,99.90
2019-01-12T23:18:36.135Z,99.90
2019-01-12T23:21:05.935Z,99.90
2019-01-12T23:23:35.255Z,99.90
2019-01-12T23:26:06.097Z,99.90
2019-01-12T23:28:35.495Z,99.90
2019-01-12T23:31:05.823Z,99.90
2019-01-12T23:33:35.636Z,99.90
2019-01-12T23:36:05.475Z,99.90
2019-01-12T23:38:34.756Z,99.90
2019-01-12T23:41:03.996Z,99.90
2019-01-12T23:43:34.057Z,99.90
2019-01-12T23:46:03.556Z,99.90
2019-01-12T23:48:33.236Z,99.90
2019-01-12T23:51:21.676Z,99.90
2019-01-12T23:53:50.915Z,99.90
2019-01-12T23:56:23.375Z,99.90
2019-01-12T23:58:52.757Z,99.90
